sensor_id;sensor_type;location;lat;lon;timestamp;P1;durP1;ratioP1;P2;durP2;ratioP2
52934;SDS011;38802;50.198;19.796;2024-01-30T00:00:34;35.70;;;18.70;;
52934;SDS011;38802;50.198;19.796;2024-01-30T00:03:23;38.30;;;18.60;;
52934;SDS011;38802;50.198;19.796;2024-01-30T00:05:51;35.50;;;19.30;;
52934;SDS011;38802;50.198;19.796;2024-01-30T00:08:20;33.30;;;17.30;;
52934;SDS011;38802;50.198;19.796;2024-01-30T00:10:48;30.70;;;17.50;;
52934;SDS011;38802;50.198;19.796;2024-01-30T00:13:16;31.00;;;17.80;;
52934;SDS011;38802;50.198;19.796;2024-01-30T00:15:47;31.40;;;17.40;;
52934;SDS011;38802;50.198;19.796;2024-01-30T00:18:16;28.70;;;16.50;;
52934;SDS011;38802;50.198;19.796;2024-01-30T00:20:44;27.00;;;17.20;;
52934;SDS011;38802;50.198;19.796;2024-01-30T00:23:12;28.80;;;15.80;;
52934;SDS011;38802;50.198;19.796;2024-01-30T00:25:41;26.30;;;15.80;;
52934;SDS011;38802;50.198;19.796;2024-01-30T00:28:09;29.10;;;15.40;;
52934;SDS011;38802;50.198;19.796;2024-01-30T00:30:37;27.90;;;15.80;;
52934;SDS011;38802;50.198;19.796;2024-01-30T00:33:05;26.30;;;15.20;;
52934;SDS011;38802;50.198;19.796;2024-01-30T00:35:33;26.70;;;15.40;;
52934;SDS011;38802;50.198;19.796;2024-01-30T00:38:01;25.30;;;16.40;;
52934;SDS011;38802;50.198;19.796;2024-01-30T00:40:29;27.60;;;16.20;;
52934;SDS011;38802;50.198;19.796;2024-01-30T00:42:57;33.50;;;16.90;;
52934;SDS011;38802;50.198;19.796;2024-01-30T00:45:25;29.80;;;16.70;;
52934;SDS011;38802;50.198;19.796;2024-01-30T00:47:53;29.90;;;17.20;;
52934;SDS011;38802;50.198;19.796;2024-01-30T00:50:21;34.50;;;18.20;;
52934;SDS011;38802;50.198;19.796;2024-01-30T00:52:49;27.50;;;16.50;;
52934;SDS011;38802;50.198;19.796;2024-01-30T00:55:18;32.60;;;17.60;;
52934;SDS011;38802;50.198;19.796;2024-01-30T00:57:46;31.70;;;17.60;;
52934;SDS011;38802;50.198;19.796;2024-01-30T01:00:15;25.30;;;15.30;;
52934;SDS011;38802;50.198;19.796;2024-01-30T01:02:45;30.70;;;16.60;;
52934;SDS011;38802;50.198;19.796;2024-01-30T01:05:14;28.70;;;16.00;;
52934;SDS011;38802;50.198;19.796;2024-01-30T01:07:42;30.50;;;16.30;;
52934;SDS011;38802;50.198;19.796;2024-01-30T01:10:10;28.80;;;15.40;;
52934;SDS011;38802;50.198;19.796;2024-01-30T01:12:41;29.60;;;15.70;;
52934;SDS011;38802;50.198;19.796;2024-01-30T01:15:10;26.40;;;14.60;;
52934;SDS011;38802;50.198;19.796;2024-01-30T01:17:38;25.70;;;14.10;;
52934;SDS011;38802;50.198;19.796;2024-01-30T01:20:07;29.90;;;16.70;;
52934;SDS011;38802;50.198;19.796;2024-01-30T01:22:35;26.50;;;14.40;;
52934;SDS011;38802;50.198;19.796;2024-01-30T01:25:04;28.20;;;15.80;;
52934;SDS011;38802;50.198;19.796;2024-01-30T01:27:34;26.10;;;14.00;;
52934;SDS011;38802;50.198;19.796;2024-01-30T01:30:11;20.50;;;13.10;;
52934;SDS011;38802;50.198;19.796;2024-01-30T01:32:42;22.00;;;13.70;;
52934;SDS011;38802;50.198;19.796;2024-01-30T01:35:16;21.80;;;13.80;;
52934;SDS011;38802;50.198;19.796;2024-01-30T01:37:45;29.30;;;14.50;;
52934;SDS011;38802;50.198;19.796;2024-01-30T01:40:12;22.00;;;14.50;;
52934;SDS011;38802;50.198;19.796;2024-01-30T01:42:41;27.00;;;15.20;;
52934;SDS011;38802;50.198;19.796;2024-01-30T01:45:09;20.00;;;12.50;;
52934;SDS011;38802;50.198;19.796;2024-01-30T01:47:37;22.10;;;14.10;;
52934;SDS011;38802;50.198;19.796;2024-01-30T01:50:05;23.30;;;13.30;;
52934;SDS011;38802;50.198;19.796;2024-01-30T01:52:34;25.40;;;14.30;;
52934;SDS011;38802;50.198;19.796;2024-01-30T01:55:02;23.70;;;13.90;;
52934;SDS011;38802;50.198;19.796;2024-01-30T01:57:31;21.90;;;13.90;;
52934;SDS011;38802;50.198;19.796;2024-01-30T02:00:00;26.30;;;15.90;;
52934;SDS011;38802;50.198;19.796;2024-01-30T02:05:04;22.20;;;13.10;;
52934;SDS011;38802;50.198;19.796;2024-01-30T02:07:33;26.20;;;15.30;;
52934;SDS011;38802;50.198;19.796;2024-01-30T02:10:02;24.90;;;14.30;;
52934;SDS011;38802;50.198;19.796;2024-01-30T02:12:31;24.20;;;14.30;;
52934;SDS011;38802;50.198;19.796;2024-01-30T02:14:59;26.00;;;14.70;;
52934;SDS011;38802;50.198;19.796;2024-01-30T02:17:27;25.30;;;14.70;;
52934;SDS011;38802;50.198;19.796;2024-01-30T02:19:55;25.10;;;14.00;;
52934;SDS011;38802;50.198;19.796;2024-01-30T02:22:24;21.90;;;13.10;;
52934;SDS011;38802;50.198;19.796;2024-01-30T02:24:52;22.30;;;13.30;;
52934;SDS011;38802;50.198;19.796;2024-01-30T02:27:20;23.10;;;13.80;;
52934;SDS011;38802;50.198;19.796;2024-01-30T02:29:48;21.90;;;14.20;;
52934;SDS011;38802;50.198;19.796;2024-01-30T02:32:16;25.00;;;13.60;;
52934;SDS011;38802;50.198;19.796;2024-01-30T02:34:44;23.40;;;14.20;;
52934;SDS011;38802;50.198;19.796;2024-01-30T02:37:12;23.90;;;14.30;;
52934;SDS011;38802;50.198;19.796;2024-01-30T02:39:40;24.70;;;13.90;;
52934;SDS011;38802;50.198;19.796;2024-01-30T02:42:08;26.20;;;13.50;;
52934;SDS011;38802;50.198;19.796;2024-01-30T02:44:36;26.70;;;13.80;;
52934;SDS011;38802;50.198;19.796;2024-01-30T02:47:04;23.00;;;13.80;;
52934;SDS011;38802;50.198;19.796;2024-01-30T02:49:32;20.80;;;13.30;;
52934;SDS011;38802;50.198;19.796;2024-01-30T02:52:00;23.10;;;13.60;;
52934;SDS011;38802;50.198;19.796;2024-01-30T02:54:28;24.60;;;15.20;;
52934;SDS011;38802;50.198;19.796;2024-01-30T02:56:58;26.80;;;15.90;;
52934;SDS011;38802;50.198;19.796;2024-01-30T02:59:26;24.10;;;14.30;;
52934;SDS011;38802;50.198;19.796;2024-01-30T03:01:54;28.90;;;15.90;;
52934;SDS011;38802;50.198;19.796;2024-01-30T03:04:22;25.10;;;14.00;;
52934;SDS011;38802;50.198;19.796;2024-01-30T03:06:51;27.00;;;15.70;;
52934;SDS011;38802;50.198;19.796;2024-01-30T03:09:19;27.90;;;15.40;;
52934;SDS011;38802;50.198;19.796;2024-01-30T03:11:47;27.70;;;16.50;;
52934;SDS011;38802;50.198;19.796;2024-01-30T03:14:15;27.10;;;14.70;;
52934;SDS011;38802;50.198;19.796;2024-01-30T03:16:43;26.30;;;15.40;;
52934;SDS011;38802;50.198;19.796;2024-01-30T03:19:11;28.50;;;16.50;;
52934;SDS011;38802;50.198;19.796;2024-01-30T03:21:39;23.40;;;14.00;;
52934;SDS011;38802;50.198;19.796;2024-01-30T03:24:08;22.20;;;15.10;;
52934;SDS011;38802;50.198;19.796;2024-01-30T03:26:36;25.50;;;15.40;;
52934;SDS011;38802;50.198;19.796;2024-01-30T03:29:04;30.10;;;17.30;;
52934;SDS011;38802;50.198;19.796;2024-01-30T03:31:33;27.20;;;15.50;;
52934;SDS011;38802;50.198;19.796;2024-01-30T03:34:02;33.40;;;17.60;;
52934;SDS011;38802;50.198;19.796;2024-01-30T03:36:30;29.50;;;14.80;;
52934;SDS011;38802;50.198;19.796;2024-01-30T03:39:00;29.30;;;15.10;;
52934;SDS011;38802;50.198;19.796;2024-01-30T03:41:29;27.10;;;14.70;;
52934;SDS011;38802;50.198;19.796;2024-01-30T03:43:57;25.90;;;15.50;;
52934;SDS011;38802;50.198;19.796;2024-01-30T03:46:25;28.10;;;15.10;;
52934;SDS011;38802;50.198;19.796;2024-01-30T03:48:53;29.20;;;17.40;;
52934;SDS011;38802;50.198;19.796;2024-01-30T03:51:22;26.30;;;14.90;;
52934;SDS011;38802;50.198;19.796;2024-01-30T03:53:50;29.70;;;16.20;;
52934;SDS011;38802;50.198;19.796;2024-01-30T03:56:18;30.90;;;16.40;;
52934;SDS011;38802;50.198;19.796;2024-01-30T03:58:46;32.20;;;15.60;;
52934;SDS011;38802;50.198;19.796;2024-01-30T04:01:14;31.80;;;17.20;;
52934;SDS011;38802;50.198;19.796;2024-01-30T04:03:43;30.10;;;15.60;;
52934;SDS011;38802;50.198;19.796;2024-01-30T04:06:12;26.70;;;16.20;;
52934;SDS011;38802;50.198;19.796;2024-01-30T04:08:40;25.10;;;15.40;;
52934;SDS011;38802;50.198;19.796;2024-01-30T04:11:08;31.70;;;16.30;;
52934;SDS011;38802;50.198;19.796;2024-01-30T04:13:36;28.50;;;16.70;;
52934;SDS011;38802;50.198;19.796;2024-01-30T04:16:04;33.60;;;18.10;;
52934;SDS011;38802;50.198;19.796;2024-01-30T04:18:33;28.20;;;15.50;;
52934;SDS011;38802;50.198;19.796;2024-01-30T04:21:01;34.50;;;18.50;;
52934;SDS011;38802;50.198;19.796;2024-01-30T04:23:30;30.40;;;16.60;;
52934;SDS011;38802;50.198;19.796;2024-01-30T04:25:58;31.40;;;18.10;;
52934;SDS011;38802;50.198;19.796;2024-01-30T04:28:26;35.20;;;17.70;;
52934;SDS011;38802;50.198;19.796;2024-01-30T04:30:54;31.90;;;18.40;;
52934;SDS011;38802;50.198;19.796;2024-01-30T04:33:22;30.00;;;16.70;;
52934;SDS011;38802;50.198;19.796;2024-01-30T04:35:50;25.70;;;16.70;;
52934;SDS011;38802;50.198;19.796;2024-01-30T04:38:19;33.50;;;17.80;;
52934;SDS011;38802;50.198;19.796;2024-01-30T04:40:47;34.10;;;18.00;;
52934;SDS011;38802;50.198;19.796;2024-01-30T04:43:15;32.60;;;17.10;;
52934;SDS011;38802;50.198;19.796;2024-01-30T04:45:43;33.70;;;17.90;;
52934;SDS011;38802;50.198;19.796;2024-01-30T04:55:22;30.60;;;17.30;;
52934;SDS011;38802;50.198;19.796;2024-01-30T04:57:50;32.60;;;16.40;;
52934;SDS011;38802;50.198;19.796;2024-01-30T05:00:19;36.20;;;17.80;;
52934;SDS011;38802;50.198;19.796;2024-01-30T05:02:47;31.10;;;16.90;;
52934;SDS011;38802;50.198;19.796;2024-01-30T05:05:15;26.00;;;15.70;;
52934;SDS011;38802;50.198;19.796;2024-01-30T05:07:44;33.30;;;17.20;;
52934;SDS011;38802;50.198;19.796;2024-01-30T05:10:12;32.00;;;19.90;;
52934;SDS011;38802;50.198;19.796;2024-01-30T05:12:40;37.40;;;17.50;;
52934;SDS011;38802;50.198;19.796;2024-01-30T05:15:09;37.20;;;18.00;;
52934;SDS011;38802;50.198;19.796;2024-01-30T05:17:37;29.30;;;17.00;;
52934;SDS011;38802;50.198;19.796;2024-01-30T05:20:05;35.50;;;16.90;;
52934;SDS011;38802;50.198;19.796;2024-01-30T05:22:34;36.40;;;18.10;;
52934;SDS011;38802;50.198;19.796;2024-01-30T05:25:02;32.30;;;17.10;;
52934;SDS011;38802;50.198;19.796;2024-01-30T05:27:30;32.10;;;17.90;;
52934;SDS011;38802;50.198;19.796;2024-01-30T05:29:58;31.10;;;17.40;;
52934;SDS011;38802;50.198;19.796;2024-01-30T05:32:26;27.40;;;16.60;;
52934;SDS011;38802;50.198;19.796;2024-01-30T05:34:54;33.80;;;17.70;;
52934;SDS011;38802;50.198;19.796;2024-01-30T05:37:23;31.90;;;18.00;;
52934;SDS011;38802;50.198;19.796;2024-01-30T05:39:51;36.50;;;18.70;;
52934;SDS011;38802;50.198;19.796;2024-01-30T05:42:19;33.90;;;18.00;;
52934;SDS011;38802;50.198;19.796;2024-01-30T05:44:47;33.70;;;18.60;;
52934;SDS011;38802;50.198;19.796;2024-01-30T05:47:15;36.80;;;20.00;;
52934;SDS011;38802;50.198;19.796;2024-01-30T05:49:43;38.70;;;19.60;;
52934;SDS011;38802;50.198;19.796;2024-01-30T05:52:11;34.20;;;18.60;;
52934;SDS011;38802;50.198;19.796;2024-01-30T05:54:39;38.80;;;20.40;;
52934;SDS011;38802;50.198;19.796;2024-01-30T05:57:07;35.10;;;19.30;;
52934;SDS011;38802;50.198;19.796;2024-01-30T05:59:35;35.10;;;19.70;;
52934;SDS011;38802;50.198;19.796;2024-01-30T06:02:09;39.40;;;19.70;;
52934;SDS011;38802;50.198;19.796;2024-01-30T06:04:38;40.00;;;20.10;;
52934;SDS011;38802;50.198;19.796;2024-01-30T06:07:06;42.50;;;20.40;;
52934;SDS011;38802;50.198;19.796;2024-01-30T06:09:35;43.10;;;21.50;;
52934;SDS011;38802;50.198;19.796;2024-01-30T06:12:04;46.70;;;22.30;;
52934;SDS011;38802;50.198;19.796;2024-01-30T06:14:33;42.70;;;20.70;;
52934;SDS011;38802;50.198;19.796;2024-01-30T06:17:01;42.70;;;23.80;;
52934;SDS011;38802;50.198;19.796;2024-01-30T06:19:29;44.40;;;23.70;;
52934;SDS011;38802;50.198;19.796;2024-01-30T06:21:57;40.30;;;21.60;;
52934;SDS011;38802;50.198;19.796;2024-01-30T06:24:25;42.50;;;21.80;;
52934;SDS011;38802;50.198;19.796;2024-01-30T06:26:55;41.60;;;23.20;;
52934;SDS011;38802;50.198;19.796;2024-01-30T06:29:23;42.40;;;21.10;;
52934;SDS011;38802;50.198;19.796;2024-01-30T06:31:52;50.10;;;26.00;;
52934;SDS011;38802;50.198;19.796;2024-01-30T06:34:21;55.70;;;26.90;;
52934;SDS011;38802;50.198;19.796;2024-01-30T06:36:49;48.70;;;25.30;;
52934;SDS011;38802;50.198;19.796;2024-01-30T06:39:17;40.60;;;23.40;;
52934;SDS011;38802;50.198;19.796;2024-01-30T06:41:46;41.30;;;23.00;;
52934;SDS011;38802;50.198;19.796;2024-01-30T06:44:14;41.70;;;22.20;;
52934;SDS011;38802;50.198;19.796;2024-01-30T06:46:42;40.90;;;19.50;;
52934;SDS011;38802;50.198;19.796;2024-01-30T06:49:10;36.80;;;20.70;;
52934;SDS011;38802;50.198;19.796;2024-01-30T06:51:38;38.10;;;21.40;;
52934;SDS011;38802;50.198;19.796;2024-01-30T06:54:06;36.90;;;20.00;;
52934;SDS011;38802;50.198;19.796;2024-01-30T06:56:34;40.00;;;20.90;;
52934;SDS011;38802;50.198;19.796;2024-01-30T06:59:03;40.10;;;21.10;;
52934;SDS011;38802;50.198;19.796;2024-01-30T07:01:31;41.80;;;21.30;;
52934;SDS011;38802;50.198;19.796;2024-01-30T07:04:00;40.20;;;20.10;;
52934;SDS011;38802;50.198;19.796;2024-01-30T07:06:28;32.60;;;19.10;;
52934;SDS011;38802;50.198;19.796;2024-01-30T07:08:56;30.20;;;18.00;;
52934;SDS011;38802;50.198;19.796;2024-01-30T07:11:24;34.90;;;18.30;;
52934;SDS011;38802;50.198;19.796;2024-01-30T07:13:53;31.60;;;17.30;;
52934;SDS011;38802;50.198;19.796;2024-01-30T07:16:21;33.70;;;19.30;;
52934;SDS011;38802;50.198;19.796;2024-01-30T07:18:51;35.60;;;17.50;;
52934;SDS011;38802;50.198;19.796;2024-01-30T07:21:19;37.30;;;19.60;;
52934;SDS011;38802;50.198;19.796;2024-01-30T07:23:49;32.70;;;19.20;;
52934;SDS011;38802;50.198;19.796;2024-01-30T07:26:17;28.70;;;16.00;;
52934;SDS011;38802;50.198;19.796;2024-01-30T07:28:45;30.00;;;17.80;;
52934;SDS011;38802;50.198;19.796;2024-01-30T07:31:13;33.20;;;18.10;;
52934;SDS011;38802;50.198;19.796;2024-01-30T07:33:41;27.60;;;16.70;;
52934;SDS011;38802;50.198;19.796;2024-01-30T07:36:09;39.00;;;20.40;;
52934;SDS011;38802;50.198;19.796;2024-01-30T07:38:38;35.90;;;19.60;;
52934;SDS011;38802;50.198;19.796;2024-01-30T07:41:06;44.80;;;21.40;;
52934;SDS011;38802;50.198;19.796;2024-01-30T07:43:34;39.20;;;22.20;;
52934;SDS011;38802;50.198;19.796;2024-01-30T07:46:03;44.20;;;22.70;;
52934;SDS011;38802;50.198;19.796;2024-01-30T07:48:33;38.50;;;21.30;;
52934;SDS011;38802;50.198;19.796;2024-01-30T07:51:01;34.10;;;20.50;;
52934;SDS011;38802;50.198;19.796;2024-01-30T07:53:31;37.20;;;19.00;;
52934;SDS011;38802;50.198;19.796;2024-01-30T07:56:00;36.70;;;19.00;;
52934;SDS011;38802;50.198;19.796;2024-01-30T07:58:28;36.50;;;19.40;;
52934;SDS011;38802;50.198;19.796;2024-01-30T08:00:56;39.50;;;19.60;;
52934;SDS011;38802;50.198;19.796;2024-01-30T08:03:26;30.10;;;17.90;;
52934;SDS011;38802;50.198;19.796;2024-01-30T08:05:55;36.00;;;18.20;;
52934;SDS011;38802;50.198;19.796;2024-01-30T08:08:23;32.70;;;16.50;;
52934;SDS011;38802;50.198;19.796;2024-01-30T08:10:52;28.70;;;16.40;;
52934;SDS011;38802;50.198;19.796;2024-01-30T08:13:20;29.20;;;17.90;;
52934;SDS011;38802;50.198;19.796;2024-01-30T08:15:48;30.70;;;17.40;;
52934;SDS011;38802;50.198;19.796;2024-01-30T08:18:16;29.50;;;16.70;;
52934;SDS011;38802;50.198;19.796;2024-01-30T08:20:44;30.20;;;15.50;;
52934;SDS011;38802;50.198;19.796;2024-01-30T08:23:12;27.10;;;16.20;;
52934;SDS011;38802;50.198;19.796;2024-01-30T08:25:40;32.60;;;17.30;;
52934;SDS011;38802;50.198;19.796;2024-01-30T08:28:08;29.30;;;15.60;;
52934;SDS011;38802;50.198;19.796;2024-01-30T08:30:36;33.70;;;16.70;;
52934;SDS011;38802;50.198;19.796;2024-01-30T08:33:07;28.00;;;15.30;;
52934;SDS011;38802;50.198;19.796;2024-01-30T08:35:35;30.40;;;16.10;;
52934;SDS011;38802;50.198;19.796;2024-01-30T08:38:04;24.20;;;13.20;;
52934;SDS011;38802;50.198;19.796;2024-01-30T08:40:32;25.20;;;14.00;;
52934;SDS011;38802;50.198;19.796;2024-01-30T08:43:00;20.80;;;12.00;;
52934;SDS011;38802;50.198;19.796;2024-01-30T08:45:28;19.00;;;12.30;;
52934;SDS011;38802;50.198;19.796;2024-01-30T08:47:56;15.50;;;10.70;;
52934;SDS011;38802;50.198;19.796;2024-01-30T08:50:25;18.20;;;11.70;;
52934;SDS011;38802;50.198;19.796;2024-01-30T08:52:53;18.20;;;9.60;;
52934;SDS011;38802;50.198;19.796;2024-01-30T08:55:21;14.40;;;10.20;;
52934;SDS011;38802;50.198;19.796;2024-01-30T08:57:49;15.20;;;11.00;;
52934;SDS011;38802;50.198;19.796;2024-01-30T09:00:17;25.20;;;12.20;;
52934;SDS011;38802;50.198;19.796;2024-01-30T09:02:45;27.60;;;14.50;;
52934;SDS011;38802;50.198;19.796;2024-01-30T09:05:16;39.50;;;19.40;;
52934;SDS011;38802;50.198;19.796;2024-01-30T09:07:44;48.50;;;22.90;;
52934;SDS011;38802;50.198;19.796;2024-01-30T09:10:14;41.00;;;21.60;;
52934;SDS011;38802;50.198;19.796;2024-01-30T09:12:46;33.30;;;18.10;;
52934;SDS011;38802;50.198;19.796;2024-01-30T09:15:14;26.90;;;15.60;;
52934;SDS011;38802;50.198;19.796;2024-01-30T09:17:42;23.80;;;14.20;;
52934;SDS011;38802;50.198;19.796;2024-01-30T09:20:11;21.30;;;12.20;;
52934;SDS011;38802;50.198;19.796;2024-01-30T09:22:39;15.80;;;11.10;;
52934;SDS011;38802;50.198;19.796;2024-01-30T09:25:07;17.90;;;12.20;;
52934;SDS011;38802;50.198;19.796;2024-01-30T09:27:35;16.80;;;12.20;;
52934;SDS011;38802;50.198;19.796;2024-01-30T09:30:04;21.90;;;11.90;;
52934;SDS011;38802;50.198;19.796;2024-01-30T09:32:32;18.70;;;11.10;;
52934;SDS011;38802;50.198;19.796;2024-01-30T09:35:21;13.70;;;10.40;;
52934;SDS011;38802;50.198;19.796;2024-01-30T09:37:49;16.10;;;9.90;;
52934;SDS011;38802;50.198;19.796;2024-01-30T09:40:19;16.30;;;10.30;;
52934;SDS011;38802;50.198;19.796;2024-01-30T09:42:48;16.80;;;9.50;;
52934;SDS011;38802;50.198;19.796;2024-01-30T09:45:18;14.90;;;9.90;;
52934;SDS011;38802;50.198;19.796;2024-01-30T09:47:47;14.10;;;10.00;;
52934;SDS011;38802;50.198;19.796;2024-01-30T09:50:16;13.50;;;9.20;;
52934;SDS011;38802;50.198;19.796;2024-01-30T09:52:45;12.70;;;9.20;;
52934;SDS011;38802;50.198;19.796;2024-01-30T09:55:13;17.50;;;10.40;;
52934;SDS011;38802;50.198;19.796;2024-01-30T09:57:42;12.90;;;10.00;;
52934;SDS011;38802;50.198;19.796;2024-01-30T10:00:10;14.10;;;10.30;;
52934;SDS011;38802;50.198;19.796;2024-01-30T10:02:40;17.00;;;10.40;;
52934;SDS011;38802;50.198;19.796;2024-01-30T10:05:08;16.00;;;9.90;;
52934;SDS011;38802;50.198;19.796;2024-01-30T10:07:37;17.20;;;10.00;;
52934;SDS011;38802;50.198;19.796;2024-01-30T10:10:06;17.50;;;11.20;;
52934;SDS011;38802;50.198;19.796;2024-01-30T10:12:35;15.80;;;10.30;;
52934;SDS011;38802;50.198;19.796;2024-01-30T10:15:03;16.70;;;10.80;;
52934;SDS011;38802;50.198;19.796;2024-01-30T10:17:37;13.90;;;10.80;;
52934;SDS011;38802;50.198;19.796;2024-01-30T10:20:05;19.80;;;11.50;;
52934;SDS011;38802;50.198;19.796;2024-01-30T10:22:36;18.80;;;10.30;;
52934;SDS011;38802;50.198;19.796;2024-01-30T10:25:04;17.40;;;10.40;;
52934;SDS011;38802;50.198;19.796;2024-01-30T10:27:33;16.90;;;11.90;;
52934;SDS011;38802;50.198;19.796;2024-01-30T10:30:02;17.90;;;10.70;;
52934;SDS011;38802;50.198;19.796;2024-01-30T10:32:32;17.10;;;10.60;;
52934;SDS011;38802;50.198;19.796;2024-01-30T10:35:00;17.00;;;11.20;;
52934;SDS011;38802;50.198;19.796;2024-01-30T10:37:29;16.60;;;10.70;;
52934;SDS011;38802;50.198;19.796;2024-01-30T10:40:01;14.70;;;9.30;;
52934;SDS011;38802;50.198;19.796;2024-01-30T10:42:32;16.90;;;10.40;;
52934;SDS011;38802;50.198;19.796;2024-01-30T10:45:06;19.30;;;11.10;;
52934;SDS011;38802;50.198;19.796;2024-01-30T10:50:05;14.70;;;11.00;;
52934;SDS011;38802;50.198;19.796;2024-01-30T10:52:37;17.30;;;12.10;;
52934;SDS011;38802;50.198;19.796;2024-01-30T10:55:05;12.70;;;9.10;;
52934;SDS011;38802;50.198;19.796;2024-01-30T10:57:35;15.40;;;8.90;;
52934;SDS011;38802;50.198;19.796;2024-01-30T11:00:10;12.90;;;8.50;;
52934;SDS011;38802;50.198;19.796;2024-01-30T11:02:43;10.40;;;8.00;;
52934;SDS011;38802;50.198;19.796;2024-01-30T11:05:14;9.10;;;8.00;;
52934;SDS011;38802;50.198;19.796;2024-01-30T11:07:46;16.10;;;8.40;;
52934;SDS011;38802;50.198;19.796;2024-01-30T11:10:14;10.70;;;9.00;;
52934;SDS011;38802;50.198;19.796;2024-01-30T11:12:43;11.60;;;8.00;;
52934;SDS011;38802;50.198;19.796;2024-01-30T11:15:15;10.70;;;8.40;;
52934;SDS011;38802;50.198;19.796;2024-01-30T11:22:52;13.90;;;9.00;;
52934;SDS011;38802;50.198;19.796;2024-01-30T11:25:21;12.60;;;8.70;;
52934;SDS011;38802;50.198;19.796;2024-01-30T11:27:54;12.20;;;9.60;;
52934;SDS011;38802;50.198;19.796;2024-01-30T11:30:24;12.70;;;9.30;;
52934;SDS011;38802;50.198;19.796;2024-01-30T11:33:00;13.90;;;10.00;;
52934;SDS011;38802;50.198;19.796;2024-01-30T11:35:34;20.20;;;11.50;;
52934;SDS011;38802;50.198;19.796;2024-01-30T11:38:04;13.10;;;8.90;;
52934;SDS011;38802;50.198;19.796;2024-01-30T11:40:33;13.50;;;9.10;;
52934;SDS011;38802;50.198;19.796;2024-01-30T11:43:03;14.80;;;10.90;;
52934;SDS011;38802;50.198;19.796;2024-01-30T11:45:33;13.60;;;10.30;;
52934;SDS011;38802;50.198;19.796;2024-01-30T11:48:03;16.80;;;11.70;;
52934;SDS011;38802;50.198;19.796;2024-01-30T11:50:33;20.40;;;11.20;;
52934;SDS011;38802;50.198;19.796;2024-01-30T11:53:02;17.30;;;11.60;;
52934;SDS011;38802;50.198;19.796;2024-01-30T11:55:32;20.00;;;11.10;;
52934;SDS011;38802;50.198;19.796;2024-01-30T11:58:02;17.90;;;12.00;;
52934;SDS011;38802;50.198;19.796;2024-01-30T12:00:32;24.90;;;13.30;;
52934;SDS011;38802;50.198;19.796;2024-01-30T12:03:02;22.40;;;12.40;;
52934;SDS011;38802;50.198;19.796;2024-01-30T12:05:32;17.80;;;12.80;;
52934;SDS011;38802;50.198;19.796;2024-01-30T12:08:00;22.40;;;13.10;;
52934;SDS011;38802;50.198;19.796;2024-01-30T12:10:30;18.80;;;11.90;;
52934;SDS011;38802;50.198;19.796;2024-01-30T12:12:59;19.40;;;12.40;;
52934;SDS011;38802;50.198;19.796;2024-01-30T12:15:29;20.60;;;13.00;;
52934;SDS011;38802;50.198;19.796;2024-01-30T12:18:05;24.20;;;13.40;;
52934;SDS011;38802;50.198;19.796;2024-01-30T12:20:34;20.10;;;13.80;;
52934;SDS011;38802;50.198;19.796;2024-01-30T12:23:03;16.80;;;12.40;;
52934;SDS011;38802;50.198;19.796;2024-01-30T12:25:31;19.20;;;13.40;;
52934;SDS011;38802;50.198;19.796;2024-01-30T12:28:00;22.80;;;12.80;;
52934;SDS011;38802;50.198;19.796;2024-01-30T12:30:28;19.60;;;12.30;;
52934;SDS011;38802;50.198;19.796;2024-01-30T12:32:57;29.70;;;14.10;;
52934;SDS011;38802;50.198;19.796;2024-01-30T12:35:26;23.60;;;14.90;;
52934;SDS011;38802;50.198;19.796;2024-01-30T12:37:59;22.90;;;13.60;;
52934;SDS011;38802;50.198;19.796;2024-01-30T12:40:28;23.10;;;13.90;;
52934;SDS011;38802;50.198;19.796;2024-01-30T12:42:57;23.90;;;14.50;;
52934;SDS011;38802;50.198;19.796;2024-01-30T12:45:25;24.20;;;14.70;;
52934;SDS011;38802;50.198;19.796;2024-01-30T12:47:53;25.50;;;13.00;;
52934;SDS011;38802;50.198;19.796;2024-01-30T12:50:22;21.20;;;14.10;;
52934;SDS011;38802;50.198;19.796;2024-01-30T12:52:50;22.30;;;14.50;;
52934;SDS011;38802;50.198;19.796;2024-01-30T12:55:18;22.90;;;14.60;;
52934;SDS011;38802;50.198;19.796;2024-01-30T12:57:47;22.10;;;14.70;;
52934;SDS011;38802;50.198;19.796;2024-01-30T13:00:15;26.80;;;15.20;;
52934;SDS011;38802;50.198;19.796;2024-01-30T13:02:45;27.80;;;15.50;;
52934;SDS011;38802;50.198;19.796;2024-01-30T13:05:15;24.00;;;14.50;;
52934;SDS011;38802;50.198;19.796;2024-01-30T13:07:43;21.90;;;13.90;;
52934;SDS011;38802;50.198;19.796;2024-01-30T13:10:11;19.40;;;13.20;;
52934;SDS011;38802;50.198;19.796;2024-01-30T13:12:41;24.90;;;13.40;;
52934;SDS011;38802;50.198;19.796;2024-01-30T13:15:09;25.40;;;13.80;;
52934;SDS011;38802;50.198;19.796;2024-01-30T13:17:39;25.40;;;13.80;;
52934;SDS011;38802;50.198;19.796;2024-01-30T13:20:07;21.80;;;14.00;;
52934;SDS011;38802;50.198;19.796;2024-01-30T13:22:39;21.00;;;13.30;;
52934;SDS011;38802;50.198;19.796;2024-01-30T13:25:07;21.30;;;12.50;;
52934;SDS011;38802;50.198;19.796;2024-01-30T13:27:37;23.00;;;14.10;;
52934;SDS011;38802;50.198;19.796;2024-01-30T13:30:06;22.60;;;14.10;;
52934;SDS011;38802;50.198;19.796;2024-01-30T13:32:38;24.10;;;14.90;;
52934;SDS011;38802;50.198;19.796;2024-01-30T13:35:08;26.30;;;15.20;;
52934;SDS011;38802;50.198;19.796;2024-01-30T13:37:37;24.90;;;14.30;;
52934;SDS011;38802;50.198;19.796;2024-01-30T13:40:05;25.00;;;13.60;;
52934;SDS011;38802;50.198;19.796;2024-01-30T13:42:40;22.20;;;13.60;;
52934;SDS011;38802;50.198;19.796;2024-01-30T13:45:09;20.20;;;14.50;;
52934;SDS011;38802;50.198;19.796;2024-01-30T13:47:38;25.70;;;14.30;;
52934;SDS011;38802;50.198;19.796;2024-01-30T13:50:07;22.40;;;14.90;;
52934;SDS011;38802;50.198;19.796;2024-01-30T13:52:36;21.80;;;14.00;;
52934;SDS011;38802;50.198;19.796;2024-01-30T13:55:12;20.40;;;13.50;;
52934;SDS011;38802;50.198;19.796;2024-01-30T13:57:41;22.10;;;14.00;;
52934;SDS011;38802;50.198;19.796;2024-01-30T14:00:09;26.80;;;14.30;;
52934;SDS011;38802;50.198;19.796;2024-01-30T14:02:41;22.90;;;13.10;;
52934;SDS011;38802;50.198;19.796;2024-01-30T14:05:10;28.80;;;14.50;;
52934;SDS011;38802;50.198;19.796;2024-01-30T14:07:39;22.90;;;14.20;;
52934;SDS011;38802;50.198;19.796;2024-01-30T14:10:09;30.90;;;15.30;;
52934;SDS011;38802;50.198;19.796;2024-01-30T14:12:45;25.70;;;14.80;;
52934;SDS011;38802;50.198;19.796;2024-01-30T14:15:15;28.90;;;14.50;;
52934;SDS011;38802;50.198;19.796;2024-01-30T14:17:56;26.40;;;15.50;;
52934;SDS011;38802;50.198;19.796;2024-01-30T14:20:26;23.70;;;14.70;;
52934;SDS011;38802;50.198;19.796;2024-01-30T14:22:54;36.20;;;17.60;;
52934;SDS011;38802;50.198;19.796;2024-01-30T14:25:24;42.10;;;18.20;;
52934;SDS011;38802;50.198;19.796;2024-01-30T14:27:53;50.80;;;22.70;;
52934;SDS011;38802;50.198;19.796;2024-01-30T14:30:21;43.40;;;20.40;;
52934;SDS011;38802;50.198;19.796;2024-01-30T14:32:49;38.90;;;19.00;;
52934;SDS011;38802;50.198;19.796;2024-01-30T14:35:18;29.40;;;16.20;;